sensor_id;sensor_type;location;lat;lon;timestamp;P1;durP1;ratioP1;P2;durP2;ratioP2
13731;SDS011;6937;56.096;12.664;2022-11-20T00:01:30;0.73;;;0.70;;
13731;SDS011;6937;56.096;12.664;2022-11-20T00:03:56;1.13;;;1.00;;
13731;SDS011;6937;56.096;12.664;2022-11-20T00:06:23;0.97;;;0.67;;
13731;SDS011;6937;56.096;12.664;2022-11-20T00:08:49;1.50;;;1.13;;
13731;SDS011;6937;56.096;12.664;2022-11-20T00:11:16;1.10;;;0.80;;
13731;SDS011;6937;56.096;12.664;2022-11-20T00:13:44;1.03;;;0.93;;
13731;SDS011;6937;56.096;12.664;2022-11-20T00:16:11;1.00;;;0.90;;
13731;SDS011;6937;56.096;12.664;2022-11-20T00:18:38;1.27;;;1.00;;
13731;SDS011;6937;56.096;12.664;2022-11-20T00:21:07;1.10;;;0.80;;
13731;SDS011;6937;56.096;12.664;2022-11-20T00:23:36;1.60;;;0.90;;
13731;SDS011;6937;56.096;12.664;2022-11-20T00:26:05;1.90;;;0.90;;
13731;SDS011;6937;56.096;12.664;2022-11-20T00:28:33;1.03;;;0.87;;
13731;SDS011;6937;56.096;12.664;2022-11-20T00:33:32;3.70;;;0.90;;
13731;SDS011;6937;56.096;12.664;2022-11-20T00:36:01;1.50;;;1.03;;
13731;SDS011;6937;56.096;12.664;2022-11-20T00:38:28;1.20;;;1.10;;
13731;SDS011;6937;56.096;12.664;2022-11-20T00:40:55;1.53;;;1.10;;
13731;SDS011;6937;56.096;12.664;2022-11-20T00:43:22;1.20;;;1.05;;
13731;SDS011;6937;56.096;12.664;2022-11-20T00:45:47;1.20;;;1.10;;
13731;SDS011;6937;56.096;12.664;2022-11-20T00:48:12;1.93;;;1.03;;
13731;SDS011;6937;56.096;12.664;2022-11-20T00:50:38;1.30;;;1.10;;
13731;SDS011;6937;56.096;12.664;2022-11-20T00:53:04;1.60;;;1.30;;
13731;SDS011;6937;56.096;12.664;2022-11-20T00:55:29;2.10;;;1.13;;
13731;SDS011;6937;56.096;12.664;2022-11-20T00:57:54;2.50;;;1.30;;
13731;SDS011;6937;56.096;12.664;2022-11-20T01:00:20;2.83;;;1.33;;
13731;SDS011;6937;56.096;12.664;2022-11-20T01:02:45;3.73;;;0.87;;
13731;SDS011;6937;56.096;12.664;2022-11-20T01:05:10;1.83;;;1.30;;
13731;SDS011;6937;56.096;12.664;2022-11-20T01:07:36;1.50;;;1.10;;
13731;SDS011;6937;56.096;12.664;2022-11-20T01:10:01;2.33;;;1.10;;
13731;SDS011;6937;56.096;12.664;2022-11-20T01:12:27;3.40;;;1.10;;
13731;SDS011;6937;56.096;12.664;2022-11-20T01:14:52;1.30;;;1.20;;
13731;SDS011;6937;56.096;12.664;2022-11-20T01:17:17;1.90;;;1.30;;
13731;SDS011;6937;56.096;12.664;2022-11-20T01:19:43;2.50;;;1.03;;
13731;SDS011;6937;56.096;12.664;2022-11-20T01:22:09;1.67;;;1.57;;
13731;SDS011;6937;56.096;12.664;2022-11-20T01:24:34;1.50;;;1.30;;
13731;SDS011;6937;56.096;12.664;2022-11-20T01:26:59;1.70;;;1.27;;
13731;SDS011;6937;56.096;12.664;2022-11-20T01:29:25;1.90;;;1.20;;
13731;SDS011;6937;56.096;12.664;2022-11-20T01:31:50;1.70;;;1.30;;
13731;SDS011;6937;56.096;12.664;2022-11-20T01:34:17;3.97;;;1.50;;
13731;SDS011;6937;56.096;12.664;2022-11-20T01:36:44;1.40;;;1.30;;
13731;SDS011;6937;56.096;12.664;2022-11-20T01:39:11;2.00;;;1.43;;
13731;SDS011;6937;56.096;12.664;2022-11-20T01:41:38;2.77;;;1.17;;
13731;SDS011;6937;56.096;12.664;2022-11-20T01:44:49;1.43;;;1.20;;
13731;SDS011;6937;56.096;12.664;2022-11-20T01:47:13;1.37;;;1.10;;
13731;SDS011;6937;56.096;12.664;2022-11-20T01:49:52;2.03;;;1.63;;
13731;SDS011;6937;56.096;12.664;2022-11-20T01:52:45;1.67;;;1.30;;
13731;SDS011;6937;56.096;12.664;2022-11-20T01:55:21;2.30;;;1.33;;
13731;SDS011;6937;56.096;12.664;2022-11-20T01:57:50;1.37;;;1.20;;
13731;SDS011;6937;56.096;12.664;2022-11-20T02:00:17;2.17;;;1.60;;
13731;SDS011;6937;56.096;12.664;2022-11-20T02:02:46;2.87;;;1.20;;
13731;SDS011;6937;56.096;12.664;2022-11-20T02:07:50;3.30;;;1.30;;
13731;SDS011;6937;56.096;12.664;2022-11-20T02:10:16;2.50;;;1.40;;
13731;SDS011;6937;56.096;12.664;2022-11-20T02:12:41;2.17;;;1.33;;
13731;SDS011;6937;56.096;12.664;2022-11-20T02:15:25;2.00;;;1.27;;
13731;SDS011;6937;56.096;12.664;2022-11-20T02:17:51;3.90;;;1.80;;
13731;SDS011;6937;56.096;12.664;2022-11-20T02:20:16;2.53;;;1.73;;
13731;SDS011;6937;56.096;12.664;2022-11-20T02:22:46;1.57;;;1.40;;
13731;SDS011;6937;56.096;12.664;2022-11-20T02:25:19;3.33;;;1.57;;
13731;SDS011;6937;56.096;12.664;2022-11-20T02:27:45;2.57;;;1.30;;
13731;SDS011;6937;56.096;12.664;2022-11-20T02:30:11;1.73;;;1.57;;
13731;SDS011;6937;56.096;12.664;2022-11-20T02:32:37;1.33;;;1.10;;
13731;SDS011;6937;56.096;12.664;2022-11-20T02:35:10;1.60;;;1.00;;
13731;SDS011;6937;56.096;12.664;2022-11-20T02:37:54;3.93;;;1.40;;
13731;SDS011;6937;56.096;12.664;2022-11-20T02:40:21;1.57;;;1.10;;
13731;SDS011;6937;56.096;12.664;2022-11-20T02:42:47;1.80;;;0.87;;
13731;SDS011;6937;56.096;12.664;2022-11-20T02:45:13;1.03;;;0.93;;
13731;SDS011;6937;56.096;12.664;2022-11-20T02:47:38;1.03;;;0.93;;
13731;SDS011;6937;56.096;12.664;2022-11-20T02:50:04;1.00;;;0.87;;
13731;SDS011;6937;56.096;12.664;2022-11-20T02:52:30;1.97;;;1.40;;
13731;SDS011;6937;56.096;12.664;2022-11-20T02:54:56;1.97;;;1.00;;
13731;SDS011;6937;56.096;12.664;2022-11-20T02:57:21;1.90;;;1.00;;
13731;SDS011;6937;56.096;12.664;2022-11-20T02:59:46;2.00;;;1.10;;
13731;SDS011;6937;56.096;12.664;2022-11-20T03:02:12;2.17;;;1.20;;
13731;SDS011;6937;56.096;12.664;2022-11-20T03:04:37;1.20;;;1.10;;
13731;SDS011;6937;56.096;12.664;2022-11-20T03:07:03;1.20;;;1.00;;
13731;SDS011;6937;56.096;12.664;2022-11-20T03:09:29;2.13;;;1.40;;
13731;SDS011;6937;56.096;12.664;2022-11-20T03:11:54;1.43;;;1.00;;
13731;SDS011;6937;56.096;12.664;2022-11-20T03:14:20;1.47;;;1.00;;
13731;SDS011;6937;56.096;12.664;2022-11-20T03:16:45;1.70;;;1.20;;
13731;SDS011;6937;56.096;12.664;2022-11-20T03:19:11;2.50;;;1.23;;
13731;SDS011;6937;56.096;12.664;2022-11-20T03:21:38;1.00;;;0.80;;
13731;SDS011;6937;56.096;12.664;2022-11-20T03:24:04;1.87;;;1.10;;
13731;SDS011;6937;56.096;12.664;2022-11-20T03:26:29;1.70;;;1.33;;
13731;SDS011;6937;56.096;12.664;2022-11-20T03:28:56;1.23;;;0.97;;
13731;SDS011;6937;56.096;12.664;2022-11-20T03:31:24;1.37;;;1.27;;
13731;SDS011;6937;56.096;12.664;2022-11-20T03:33:52;2.90;;;0.90;;
13731;SDS011;6937;56.096;12.664;2022-11-20T03:36:18;3.13;;;1.17;;
13731;SDS011;6937;56.096;12.664;2022-11-20T03:38:44;1.47;;;1.30;;
13731;SDS011;6937;56.096;12.664;2022-11-20T03:41:14;1.73;;;1.23;;
13731;SDS011;6937;56.096;12.664;2022-11-20T03:43:41;2.53;;;1.37;;
13731;SDS011;6937;56.096;12.664;2022-11-20T03:46:06;1.67;;;1.30;;
13731;SDS011;6937;56.096;12.664;2022-11-20T03:48:32;1.23;;;1.10;;
13731;SDS011;6937;56.096;12.664;2022-11-20T03:53:58;1.50;;;1.10;;
13731;SDS011;6937;56.096;12.664;2022-11-20T03:56:28;1.20;;;0.83;;
13731;SDS011;6937;56.096;12.664;2022-11-20T03:58:55;2.43;;;1.33;;
13731;SDS011;6937;56.096;12.664;2022-11-20T04:01:22;1.23;;;1.00;;
13731;SDS011;6937;56.096;12.664;2022-11-20T04:03:51;1.20;;;1.10;;
13731;SDS011;6937;56.096;12.664;2022-11-20T04:06:18;1.07;;;0.80;;
13731;SDS011;6937;56.096;12.664;2022-11-20T04:08:53;0.90;;;0.90;;
13731;SDS011;6937;56.096;12.664;2022-11-20T04:13:53;1.13;;;0.90;;
13731;SDS011;6937;56.096;12.664;2022-11-20T04:16:21;1.50;;;1.20;;
13731;SDS011;6937;56.096;12.664;2022-11-20T04:18:54;2.23;;;1.40;;
13731;SDS011;6937;56.096;12.664;2022-11-20T04:21:21;1.50;;;1.00;;
13731;SDS011;6937;56.096;12.664;2022-11-20T04:23:47;1.20;;;1.03;;
13731;SDS011;6937;56.096;12.664;2022-11-20T04:26:13;0.87;;;0.87;;
13731;SDS011;6937;56.096;12.664;2022-11-20T04:28:38;2.23;;;1.17;;
13731;SDS011;6937;56.096;12.664;2022-11-20T04:31:11;1.03;;;0.90;;
13731;SDS011;6937;56.096;12.664;2022-11-20T04:33:38;0.90;;;0.90;;
13731;SDS011;6937;56.096;12.664;2022-11-20T04:36:10;1.93;;;1.03;;
13731;SDS011;6937;56.096;12.664;2022-11-20T04:38:37;1.33;;;1.13;;
13731;SDS011;6937;56.096;12.664;2022-11-20T04:41:04;1.37;;;1.20;;
13731;SDS011;6937;56.096;12.664;2022-11-20T04:43:31;1.63;;;1.10;;
13731;SDS011;6937;56.096;12.664;2022-11-20T04:45:57;1.27;;;0.90;;
13731;SDS011;6937;56.096;12.664;2022-11-20T04:48:24;1.40;;;1.00;;
13731;SDS011;6937;56.096;12.664;2022-11-20T04:50:50;2.70;;;1.10;;
13731;SDS011;6937;56.096;12.664;2022-11-20T04:53:16;2.20;;;1.83;;
13731;SDS011;6937;56.096;12.664;2022-11-20T04:55:42;1.60;;;1.07;;
13731;SDS011;6937;56.096;12.664;2022-11-20T04:58:07;1.43;;;0.93;;
13731;SDS011;6937;56.096;12.664;2022-11-20T05:00:32;3.97;;;1.33;;
13731;SDS011;6937;56.096;12.664;2022-11-20T05:02:58;1.60;;;1.17;;
13731;SDS011;6937;56.096;12.664;2022-11-20T05:05:23;1.33;;;1.03;;
13731;SDS011;6937;56.096;12.664;2022-11-20T05:07:48;1.33;;;1.13;;
13731;SDS011;6937;56.096;12.664;2022-11-20T05:10:14;1.23;;;1.00;;
13731;SDS011;6937;56.096;12.664;2022-11-20T05:12:40;1.40;;;1.10;;
13731;SDS011;6937;56.096;12.664;2022-11-20T05:15:05;2.30;;;1.10;;
13731;SDS011;6937;56.096;12.664;2022-11-20T05:17:31;0.80;;;0.80;;
13731;SDS011;6937;56.096;12.664;2022-11-20T05:19:56;6.53;;;1.37;;
13731;SDS011;6937;56.096;12.664;2022-11-20T05:22:22;2.30;;;1.10;;
13731;SDS011;6937;56.096;12.664;2022-11-20T05:24:47;2.27;;;1.10;;
13731;SDS011;6937;56.096;12.664;2022-11-20T05:27:13;1.33;;;0.90;;
13731;SDS011;6937;56.096;12.664;2022-11-20T05:29:38;1.13;;;0.80;;
13731;SDS011;6937;56.096;12.664;2022-11-20T05:32:04;1.57;;;1.13;;
13731;SDS011;6937;56.096;12.664;2022-11-20T05:34:31;1.07;;;0.87;;
13731;SDS011;6937;56.096;12.664;2022-11-20T05:36:56;2.00;;;1.07;;
13731;SDS011;6937;56.096;12.664;2022-11-20T05:39:22;1.40;;;0.97;;
13731;SDS011;6937;56.096;12.664;2022-11-20T05:41:47;1.60;;;1.07;;
13731;SDS011;6937;56.096;12.664;2022-11-20T05:44:32;1.93;;;0.90;;
13731;SDS011;6937;56.096;12.664;2022-11-20T05:46:57;1.57;;;1.10;;
13731;SDS011;6937;56.096;12.664;2022-11-20T05:49:23;1.30;;;1.07;;
13731;SDS011;6937;56.096;12.664;2022-11-20T05:51:48;1.90;;;1.13;;
13731;SDS011;6937;56.096;12.664;2022-11-20T05:54:13;1.97;;;1.20;;
13731;SDS011;6937;56.096;12.664;2022-11-20T05:56:39;1.67;;;1.03;;
13731;SDS011;6937;56.096;12.664;2022-11-20T05:59:04;1.90;;;1.00;;
13731;SDS011;6937;56.096;12.664;2022-11-20T06:01:29;1.73;;;1.30;;
13731;SDS011;6937;56.096;12.664;2022-11-20T06:03:55;1.63;;;1.33;;
13731;SDS011;6937;56.096;12.664;2022-11-20T06:06:20;1.37;;;1.00;;
13731;SDS011;6937;56.096;12.664;2022-11-20T06:08:46;3.13;;;1.33;;
13731;SDS011;6937;56.096;12.664;2022-11-20T06:11:12;1.60;;;1.30;;
13731;SDS011;6937;56.096;12.664;2022-11-20T06:13:39;1.60;;;1.20;;
13731;SDS011;6937;56.096;12.664;2022-11-20T06:16:05;2.37;;;1.70;;
13731;SDS011;6937;56.096;12.664;2022-11-20T06:18:30;2.57;;;1.50;;
13731;SDS011;6937;56.096;12.664;2022-11-20T06:21:00;2.43;;;1.47;;
13731;SDS011;6937;56.096;12.664;2022-11-20T06:23:27;1.57;;;1.17;;
13731;SDS011;6937;56.096;12.664;2022-11-20T06:25:54;2.53;;;1.63;;
13731;SDS011;6937;56.096;12.664;2022-11-20T06:28:20;2.10;;;1.53;;
13731;SDS011;6937;56.096;12.664;2022-11-20T06:30:45;2.47;;;1.57;;
13731;SDS011;6937;56.096;12.664;2022-11-20T06:33:11;2.77;;;1.40;;
13731;SDS011;6937;56.096;12.664;2022-11-20T06:35:36;3.07;;;1.73;;
13731;SDS011;6937;56.096;12.664;2022-11-20T06:38:01;1.87;;;1.40;;
13731;SDS011;6937;56.096;12.664;2022-11-20T06:40:27;2.20;;;1.53;;
13731;SDS011;6937;56.096;12.664;2022-11-20T06:42:53;2.47;;;1.57;;
13731;SDS011;6937;56.096;12.664;2022-11-20T06:45:19;2.90;;;1.70;;
13731;SDS011;6937;56.096;12.664;2022-11-20T06:47:45;2.27;;;1.70;;
13731;SDS011;6937;56.096;12.664;2022-11-20T06:50:10;2.97;;;2.00;;
13731;SDS011;6937;56.096;12.664;2022-11-20T06:52:36;2.77;;;2.00;;
13731;SDS011;6937;56.096;12.664;2022-11-20T06:55:01;2.60;;;1.90;;
13731;SDS011;6937;56.096;12.664;2022-11-20T06:57:26;3.60;;;1.73;;
13731;SDS011;6937;56.096;12.664;2022-11-20T06:59:52;3.47;;;2.00;;
13731;SDS011;6937;56.096;12.664;2022-11-20T07:02:17;3.47;;;2.23;;
13731;SDS011;6937;56.096;12.664;2022-11-20T07:04:42;2.10;;;1.90;;
13731;SDS011;6937;56.096;12.664;2022-11-20T07:07:08;2.23;;;1.77;;
13731;SDS011;6937;56.096;12.664;2022-11-20T07:09:33;2.60;;;1.80;;
13731;SDS011;6937;56.096;12.664;2022-11-20T07:11:59;2.30;;;1.80;;
13731;SDS011;6937;56.096;12.664;2022-11-20T07:14:24;2.00;;;1.80;;
13731;SDS011;6937;56.096;12.664;2022-11-20T07:16:49;3.83;;;1.90;;
13731;SDS011;6937;56.096;12.664;2022-11-20T07:19:15;2.77;;;1.80;;
13731;SDS011;6937;56.096;12.664;2022-11-20T07:21:40;2.77;;;2.10;;
13731;SDS011;6937;56.096;12.664;2022-11-20T07:24:05;2.80;;;2.10;;
13731;SDS011;6937;56.096;12.664;2022-11-20T07:26:31;2.63;;;1.90;;
13731;SDS011;6937;56.096;12.664;2022-11-20T07:28:56;2.60;;;1.93;;
13731;SDS011;6937;56.096;12.664;2022-11-20T07:31:22;2.30;;;1.90;;
13731;SDS011;6937;56.096;12.664;2022-11-20T07:33:47;3.23;;;1.70;;
13731;SDS011;6937;56.096;12.664;2022-11-20T07:36:13;2.53;;;1.73;;
13731;SDS011;6937;56.096;12.664;2022-11-20T07:38:38;2.73;;;1.90;;
13731;SDS011;6937;56.096;12.664;2022-11-20T07:41:03;1.60;;;1.50;;
13731;SDS011;6937;56.096;12.664;2022-11-20T07:43:29;4.23;;;1.80;;
13731;SDS011;6937;56.096;12.664;2022-11-20T07:45:55;3.20;;;2.00;;
13731;SDS011;6937;56.096;12.664;2022-11-20T07:48:21;2.10;;;1.60;;
13731;SDS011;6937;56.096;12.664;2022-11-20T07:50:47;2.00;;;1.47;;
13731;SDS011;6937;56.096;12.664;2022-11-20T07:53:12;2.90;;;1.77;;
13731;SDS011;6937;56.096;12.664;2022-11-20T07:55:38;2.93;;;1.80;;
13731;SDS011;6937;56.096;12.664;2022-11-20T07:58:04;3.00;;;1.60;;
13731;SDS011;6937;56.096;12.664;2022-11-20T08:00:30;2.97;;;1.60;;
13731;SDS011;6937;56.096;12.664;2022-11-20T08:02:55;2.97;;;2.00;;
13731;SDS011;6937;56.096;12.664;2022-11-20T08:05:21;3.77;;;2.17;;
13731;SDS011;6937;56.096;12.664;2022-11-20T08:07:46;1.83;;;1.70;;
13731;SDS011;6937;56.096;12.664;2022-11-20T08:10:13;2.80;;;2.10;;
13731;SDS011;6937;56.096;12.664;2022-11-20T08:12:44;3.63;;;2.03;;
13731;SDS011;6937;56.096;12.664;2022-11-20T08:15:33;4.53;;;2.10;;
13731;SDS011;6937;56.096;12.664;2022-11-20T08:17:59;2.83;;;2.00;;
13731;SDS011;6937;56.096;12.664;2022-11-20T08:20:36;2.13;;;1.70;;
13731;SDS011;6937;56.096;12.664;2022-11-20T08:23:02;2.30;;;1.53;;
13731;SDS011;6937;56.096;12.664;2022-11-20T08:25:31;2.77;;;1.93;;
13731;SDS011;6937;56.096;12.664;2022-11-20T08:27:57;2.13;;;1.60;;
13731;SDS011;6937;56.096;12.664;2022-11-20T08:30:23;4.67;;;1.97;;
13731;SDS011;6937;56.096;12.664;2022-11-20T08:32:49;2.43;;;1.93;;
13731;SDS011;6937;56.096;12.664;2022-11-20T08:35:14;2.17;;;1.90;;
13731;SDS011;6937;56.096;12.664;2022-11-20T08:37:40;2.37;;;1.97;;
13731;SDS011;6937;56.096;12.664;2022-11-20T08:40:07;2.47;;;1.60;;
13731;SDS011;6937;56.096;12.664;2022-11-20T08:42:35;2.13;;;1.77;;
13731;SDS011;6937;56.096;12.664;2022-11-20T08:45:00;1.93;;;1.60;;
13731;SDS011;6937;56.096;12.664;2022-11-20T08:47:25;2.03;;;1.70;;
13731;SDS011;6937;56.096;12.664;2022-11-20T08:49:51;3.80;;;2.07;;
13731;SDS011;6937;56.096;12.664;2022-11-20T08:52:16;1.70;;;1.60;;
13731;SDS011;6937;56.096;12.664;2022-11-20T08:54:41;2.33;;;1.50;;
13731;SDS011;6937;56.096;12.664;2022-11-20T08:57:07;2.10;;;1.70;;
13731;SDS011;6937;56.096;12.664;2022-11-20T08:59:32;1.93;;;1.63;;
13731;SDS011;6937;56.096;12.664;2022-11-20T09:01:57;3.10;;;2.00;;
13731;SDS011;6937;56.096;12.664;2022-11-20T09:04:23;2.57;;;1.83;;
13731;SDS011;6937;56.096;12.664;2022-11-20T09:06:48;2.30;;;1.80;;
13731;SDS011;6937;56.096;12.664;2022-11-20T09:09:16;1.73;;;1.63;;
13731;SDS011;6937;56.096;12.664;2022-11-20T09:11:42;2.20;;;1.80;;
13731;SDS011;6937;56.096;12.664;2022-11-20T09:14:07;1.80;;;1.50;;
13731;SDS011;6937;56.096;12.664;2022-11-20T09:16:33;2.13;;;1.42;;
13731;SDS011;6937;56.096;12.664;2022-11-20T09:18:58;2.20;;;1.67;;
13731;SDS011;6937;56.096;12.664;2022-11-20T09:21:24;1.40;;;1.30;;
13731;SDS011;6937;56.096;12.664;2022-11-20T09:23:49;2.10;;;1.50;;
13731;SDS011;6937;56.096;12.664;2022-11-20T09:26:15;1.70;;;1.53;;
13731;SDS011;6937;56.096;12.664;2022-11-20T09:28:40;1.93;;;1.70;;
13731;SDS011;6937;56.096;12.664;2022-11-20T09:31:07;2.63;;;1.87;;
13731;SDS011;6937;56.096;12.664;2022-11-20T09:33:33;1.77;;;1.47;;
13731;SDS011;6937;56.096;12.664;2022-11-20T09:35:59;2.83;;;1.93;;
13731;SDS011;6937;56.096;12.664;2022-11-20T09:38:25;2.33;;;1.70;;
13731;SDS011;6937;56.096;12.664;2022-11-20T09:41:04;2.33;;;1.63;;
13731;SDS011;6937;56.096;12.664;2022-11-20T09:54:45;2.20;;;1.50;;
13731;SDS011;6937;56.096;12.664;2022-11-20T09:57:11;2.10;;;1.53;;
13731;SDS011;6937;56.096;12.664;2022-11-20T09:59:41;4.40;;;1.80;;
13731;SDS011;6937;56.096;12.664;2022-11-20T10:05:21;2.20;;;1.40;;
13731;SDS011;6937;56.096;12.664;2022-11-20T10:07:59;2.40;;;1.30;;
13731;SDS011;6937;56.096;12.664;2022-11-20T10:10:46;3.47;;;1.40;;
13731;SDS011;6937;56.096;12.664;2022-11-20T10:13:17;1.73;;;1.50;;
13731;SDS011;6937;56.096;12.664;2022-11-20T10:16:17;2.00;;;1.50;;
13731;SDS011;6937;56.096;12.664;2022-11-20T10:19:04;1.60;;;1.50;;
13731;SDS011;6937;56.096;12.664;2022-11-20T10:30:13;2.50;;;1.90;;
13731;SDS011;6937;56.096;12.664;2022-11-20T10:32:54;3.07;;;1.80;;
13731;SDS011;6937;56.096;12.664;2022-11-20T10:35:32;2.70;;;1.97;;
13731;SDS011;6937;56.096;12.664;2022-11-20T10:38:04;2.17;;;1.97;;
13731;SDS011;6937;56.096;12.664;2022-11-20T10:40:37;2.10;;;1.50;;
13731;SDS011;6937;56.096;12.664;2022-11-20T10:45:44;1.90;;;1.50;;
13731;SDS011;6937;56.096;12.664;2022-11-20T10:48:16;1.73;;;1.60;;
13731;SDS011;6937;56.096;12.664;2022-11-20T10:56:46;2.07;;;1.50;;
13731;SDS011;6937;56.096;12.664;2022-11-20T11:02:12;2.77;;;1.90;;
13731;SDS011;6937;56.096;12.664;2022-11-20T11:04:44;3.10;;;2.07;;
13731;SDS011;6937;56.096;12.664;2022-11-20T11:07:20;2.20;;;1.60;;
13731;SDS011;6937;56.096;12.664;2022-11-20T11:09:53;2.55;;;1.98;;
13731;SDS011;6937;56.096;12.664;2022-11-20T11:12:24;2.47;;;1.95;;
13731;SDS011;6937;56.096;12.664;2022-11-20T11:14:52;2.43;;;1.80;;
13731;SDS011;6937;56.096;12.664;2022-11-20T11:17:29;2.27;;;1.70;;
13731;SDS011;6937;56.096;12.664;2022-11-20T11:20:06;3.73;;;1.83;;
13731;SDS011;6937;56.096;12.664;2022-11-20T11:22:47;2.23;;;2.00;;
13731;SDS011;6937;56.096;12.664;2022-11-20T11:27:54;3.17;;;1.80;;
13731;SDS011;6937;56.096;12.664;2022-11-20T11:30:22;2.92;;;1.80;;
13731;SDS011;6937;56.096;12.664;2022-11-20T11:32:48;2.22;;;1.70;;
13731;SDS011;6937;56.096;12.664;2022-11-20T11:35:24;1.80;;;1.55;;
13731;SDS011;6937;56.096;12.664;2022-11-20T11:37:52;1.50;;;1.40;;
13731;SDS011;6937;56.096;12.664;2022-11-20T11:40:26;2.00;;;1.33;;
13731;SDS011;6937;56.096;12.664;2022-11-20T11:42:56;2.03;;;1.55;;
13731;SDS011;6937;56.096;12.664;2022-11-20T11:45:24;1.40;;;1.30;;
13731;SDS011;6937;56.096;12.664;2022-11-20T11:47:50;2.20;;;1.70;;
13731;SDS011;6937;56.096;12.664;2022-11-20T11:50:19;1.52;;;1.40;;
13731;SDS011;6937;56.096;12.664;2022-11-20T11:55:17;2.23;;;1.47;;
13731;SDS011;6937;56.096;12.664;2022-11-20T12:00:51;3.78;;;1.63;;
13731;SDS011;6937;56.096;12.664;2022-11-20T12:03:33;2.05;;;1.65;;
13731;SDS011;6937;56.096;12.664;2022-11-20T12:06:18;1.60;;;1.50;;
13731;SDS011;6937;56.096;12.664;2022-11-20T12:11:35;1.50;;;1.40;;
13731;SDS011;6937;56.096;12.664;2022-11-20T12:17:10;1.70;;;1.50;;
13731;SDS011;6937;56.096;12.664;2022-11-20T12:19:37;2.58;;;1.55;;
13731;SDS011;6937;56.096;12.664;2022-11-20T12:30:49;1.58;;;1.20;;
13731;SDS011;6937;56.096;12.664;2022-11-20T12:33:35;1.50;;;1.40;;
13731;SDS011;6937;56.096;12.664;2022-11-20T12:38:55;1.75;;;1.48;;
13731;SDS011;6937;56.096;12.664;2022-11-20T12:44:34;1.60;;;1.50;;
13731;SDS011;6937;56.096;12.664;2022-11-20T12:50:14;1.83;;;1.52;;
13731;SDS011;6937;56.096;12.664;2022-11-20T12:52:51;1.80;;;1.70;;
13731;SDS011;6937;56.096;12.664;2022-11-20T12:55:33;1.65;;;1.35;;
13731;SDS011;6937;56.096;12.664;2022-11-20T13:00:51;1.13;;;1.02;;
13731;SDS011;6937;56.096;12.664;2022-11-20T13:03:37;1.38;;;1.27;;
13731;SDS011;6937;56.096;12.664;2022-11-20T13:06:14;1.30;;;1.20;;
13731;SDS011;6937;56.096;12.664;2022-11-20T13:08:43;1.20;;;1.10;;
13731;SDS011;6937;56.096;12.664;2022-11-20T13:11:24;1.30;;;1.20;;
13731;SDS011;6937;56.096;12.664;2022-11-20T13:14:11;2.42;;;1.30;;
13731;SDS011;6937;56.096;12.664;2022-11-20T13:19:11;0.95;;;0.95;;
13731;SDS011;6937;56.096;12.664;2022-11-20T13:21:42;1.38;;;1.27;;
13731;SDS011;6937;56.096;12.664;2022-11-20T13:29:26;1.20;;;1.00;;
13731;SDS011;6937;56.096;12.664;2022-11-20T13:32:00;1.23;;;1.13;;
13731;SDS011;6937;56.096;12.664;2022-11-20T13:34:28;1.60;;;1.30;;
13731;SDS011;6937;56.096;12.664;2022-11-20T13:36:56;1.10;;;1.00;;
13731;SDS011;6937;56.096;12.664;2022-11-20T13:41:55;1.38;;;1.27;;
13731;SDS011;6937;56.096;12.664;2022-11-20T13:46:53;1.45;;;1.10;;
13731;SDS011;6937;56.096;12.664;2022-11-20T14:00:11;1.13;;;1.10;;
13731;SDS011;6937;56.096;12.664;2022-11-20T14:02:39;1.63;;;1.52;;
13731;SDS011;6937;56.096;12.664;2022-11-20T14:05:05;6.45;;;6.05;;
13731;SDS011;6937;56.096;12.664;2022-11-20T14:07:39;2.97;;;2.78;;
13731;SDS011;6937;56.096;12.664;2022-11-20T14:13:15;4.78;;;4.43;;
13731;SDS011;6937;56.096;12.664;2022-11-20T14:15:43;4.13;;;3.45;;
13731;SDS011;6937;56.096;12.664;2022-11-20T14:18:13;2.00;;;1.83;;
13731;SDS011;6937;56.096;12.664;2022-11-20T14:20:46;5.32;;;2.90;;
13731;SDS011;6937;56.096;12.664;2022-11-20T14:23:12;2.45;;;2.25;;
13731;SDS011;6937;56.096;12.664;2022-11-20T14:25:47;5.32;;;4.82;;
13731;SDS011;6937;56.096;12.664;2022-11-20T14:28:18;57.75;;;40.92;;
13731;SDS011;6937;56.096;12.664;2022-11-20T14:30:49;89.15;;;54.60;;
13731;SDS011;6937;56.096;12.664;2022-11-20T14:33:15;20.88;;;15.82;;
13731;SDS011;6937;56.096;12.664;2022-11-20T14:35:47;14.93;;;10.57;;
13731;SDS011;6937;56.096;12.664;2022-11-20T14:38:16;13.43;;;9.27;;
13731;SDS011;6937;56.096;12.664;2022-11-20T14:40:43;44.80;;;28.02;;
13731;SDS011;6937;56.096;12.664;2022-11-20T14:43:17;18.15;;;11.73;;
13731;SDS011;6937;56.096;12.664;2022-11-20T14:45:56;8.13;;;5.82;;
13731;SDS011;6937;56.096;12.664;2022-11-20T14:48:39;4.78;;;3.13;;
13731;SDS011;6937;56.096;12.664;2022-11-20T14:51:11;2.20;;;2.05;;
13731;SDS011;6937;56.096;12.664;2022-11-20T14:53:48;2.80;;;1.90;;
13731;SDS011;6937;56.096;12.664;2022-11-20T14:56:13;2.00;;;1.75;;
13731;SDS011;6937;56.096;12.664;2022-11-20T14:58:54;1.80;;;1.70;;
13731;SDS011;6937;56.096;12.664;2022-11-20T15:01:25;1.70;;;1.25;;
13731;SDS011;6937;56.096;12.664;2022-11-20T15:03:58;2.03;;;1.58;;
13731;SDS011;6937;56.096;12.664;2022-11-20T15:06:51;1.55;;;1.27;;
13731;SDS011;6937;56.096;12.664;2022-11-20T15:09:18;1.52;;;1.30;;
13731;SDS011;6937;56.096;12.664;2022-11-20T15:11:52;2.20;;;1.70;;
13731;SDS011;6937;56.096;12.664;2022-11-20T15:14:20;1.90;;;1.50;;
13731;SDS011;6937;56.096;12.664;2022-11-20T15:16:45;4.50;;;2.30;;
13731;SDS011;6937;56.096;12.664;2022-11-20T15:19:15;4.72;;;3.10;;
13731;SDS011;6937;56.096;12.664;2022-11-20T15:21:43;3.38;;;2.42;;
13731;SDS011;6937;56.096;12.664;2022-11-20T15:24:08;4.83;;;2.53;;
13731;SDS011;6937;56.096;12.664;2022-11-20T15:26:34;3.27;;;2.07;;
13731;SDS011;6937;56.096;12.664;2022-11-20T15:29:01;3.17;;;2.03;;
13731;SDS011;6937;56.096;12.664;2022-11-20T15:31:27;2.10;;;1.80;;
13731;SDS011;6937;56.096;12.664;2022-11-20T15:33:52;2.80;;;1.85;;
13731;SDS011;6937;56.096;12.664;2022-11-20T15:36:18;7.40;;;2.20;;
13731;SDS011;6937;56.096;12.664;2022-11-20T15:38:43;3.93;;;2.17;;
13731;SDS011;6937;56.096;12.664;2022-11-20T15:41:08;4.65;;;2.38;;
13731;SDS011;6937;56.096;12.664;2022-11-20T15:43:35;4.60;;;2.60;;
13731;SDS011;6937;56.096;12.664;2022-11-20T15:46:01;4.60;;;2.63;;
13731;SDS011;6937;56.096;12.664;2022-11-20T15:48:39;3.80;;;2.10;;
13731;SDS011;6937;56.096;12.664;2022-11-20T15:53:51;3.10;;;1.90;;
13731;SDS011;6937;56.096;12.664;2022-11-20T15:56:16;3.07;;;2.30;;
13731;SDS011;6937;56.096;12.664;2022-11-20T15:58:42;5.33;;;2.30;;
13731;SDS011;6937;56.096;12.664;2022-11-20T16:01:14;2.90;;;1.77;;
13731;SDS011;6937;56.096;12.664;2022-11-20T16:03:42;2.53;;;1.60;;
13731;SDS011;6937;56.096;12.664;2022-11-20T16:06:07;3.03;;;1.57;;
13731;SDS011;6937;56.096;12.664;2022-11-20T16:08:33;2.25;;;1.40;;
13731;SDS011;6937;56.096;12.664;2022-11-20T16:10:58;2.10;;;1.60;;
13731;SDS011;6937;56.096;12.664;2022-11-20T16:13:23;4.70;;;1.80;;
13731;SDS011;6937;56.096;12.664;2022-11-20T16:16:07;3.43;;;1.70;;
13731;SDS011;6937;56.096;12.664;2022-11-20T16:18:43;2.90;;;2.10;;
13731;SDS011;6937;56.096;12.664;2022-11-20T16:21:10;3.17;;;2.00;;
13731;SDS011;6937;56.096;12.664;2022-11-20T16:23:37;2.80;;;1.70;;
13731;SDS011;6937;56.096;12.664;2022-11-20T16:26:08;2.50;;;1.83;;
13731;SDS011;6937;56.096;12.664;2022-11-20T16:28:35;1.53;;;1.40;;
13731;SDS011;6937;56.096;12.664;2022-11-20T16:33:39;1.90;;;1.50;;
13731;SDS011;6937;56.096;12.664;2022-11-20T16:36:14;3.60;;;1.70;;
13731;SDS011;6937;56.096;12.664;2022-11-20T16:38:40;2.33;;;1.67;;
13731;SDS011;6937;56.096;12.664;2022-11-20T16:41:06;1.95;;;1.55;;
13731;SDS011;6937;56.096;12.664;2022-11-20T16:43:42;2.37;;;2.10;;
13731;SDS011;6937;56.096;12.664;2022-11-20T16:46:09;2.00;;;1.77;;
13731;SDS011;6937;56.096;12.664;2022-11-20T16:48:34;2.53;;;1.70;;